Apple Springs, Texas
Current Conditions -  °F | °C
As of 5:53 AM on Monday 22 Dec 2014 (Local Time) from KLFK Reporting Station
Haze Haze  
Wind Chill: 56°   Ceiling: 200
Heat Index: 56°   Visibility: 3mi
Dew Point: 53°   Wind: 9mph
Humidity: 90%   Direction: 150°SSE
Pressure: 29.74"   Gusts: NA
Location:  31.22°N, 94.97°W
Report Text: KLFK 221153Z AUTO 15008KT 3SM BR OVC002 13/12 A2974 RMK AO2 SLP068 T01330117 10133 20117 56020
Loading
Personal Weather Stations






























Interactive Weather Map New forecast layout! Learn more

10-Day Weather Forecast

Advertisements
Track Severe Weather on mobile